12°C Temp
12°C Dewpoint
% Humidity
Temperature
16 KM/H
10 MPH
9 KTS
40°
North East

Wind Speed
Light Rain
Showers
Pressure 1007.92 (hPa) - 29.76 (in)
Visibility 6.2 (mi) - 10.0 (km)

Current Conditions
EHLW
Location 6km (3.2mi)
Metar :EHLW 100325Z AUTO 04009KT 360V060 9999 -RA FEW003 BKN005 BKN006 FEW015CB 12/12 Q1008 YLO
Fri 10th July 04:25 am

Airport
  Metar Aviation API Data Provided by https://www.checkwx.com/ PHP scripts by weather34.com ©2020